createdAt,value
2024-03-07T00:00:27.350Z,44.97
2024-03-07T00:04:28.835Z,44.60
2024-03-07T00:08:31.639Z,44.95
2024-03-07T00:12:33.915Z,44.68
2024-03-07T00:16:35.951Z,44.74
2024-03-07T00:20:37.430Z,44.47
2024-03-07T00:24:39.896Z,44.94
2024-03-07T00:28:41.695Z,44.41
2024-03-07T00:32:43.261Z,44.56
2024-03-07T00:36:44.876Z,44.18
2024-03-07T00:40:46.353Z,44.69
2024-03-07T00:44:47.933Z,44.56
2024-03-07T00:48:49.647Z,44.28
2024-03-07T00:52:51.235Z,44.45
2024-03-07T00:56:53.045Z,44.66
2024-03-07T01:00:57.149Z,44.49
2024-03-07T01:04:59.329Z,44.50
2024-03-07T01:09:00.873Z,44.94
2024-03-07T01:13:03.303Z,44.74
2024-03-07T01:17:08.034Z,44.46
2024-03-07T01:21:09.581Z,44.82
2024-03-07T01:25:11.113Z,44.48
2024-03-07T01:29:13.075Z,44.64
2024-03-07T01:33:14.611Z,44.68
2024-03-07T01:37:16.482Z,44.83
2024-03-07T01:41:18.318Z,44.42
2024-03-07T01:45:19.936Z,44.65
2024-03-07T01:49:21.484Z,44.91
2024-03-07T01:53:24.098Z,44.53
2024-03-07T01:57:26.784Z,45.15
2024-03-07T02:01:28.582Z,44.88
2024-03-07T02:05:30.081Z,45.11
2024-03-07T02:09:32.651Z,44.94
2024-03-07T02:13:34.151Z,44.87
2024-03-07T02:17:37.032Z,44.88
2024-03-07T02:21:38.524Z,45.07
2024-03-07T02:25:40.078Z,45.34
2024-03-07T02:29:43.057Z,45.39
2024-03-07T02:33:44.624Z,45.30
2024-03-07T02:37:47.312Z,45.18
2024-03-07T02:41:49.180Z,45.34
2024-03-07T02:45:51.068Z,45.53
2024-03-07T02:49:52.534Z,45.27
2024-03-07T02:53:54.080Z,45.30
2024-03-07T02:57:55.607Z,45.28
2024-03-07T03:01:57.043Z,45.37
2024-03-07T03:05:59.427Z,45.54
2024-03-07T03:10:00.900Z,45.33
2024-03-07T03:14:02.382Z,45.29
2024-03-07T03:18:04.318Z,45.35
2024-03-07T03:22:06.345Z,45.63
2024-03-07T03:26:08.035Z,45.63
2024-03-07T03:30:14.369Z,45.86
2024-03-07T03:34:15.727Z,45.81
2024-03-07T03:38:19.252Z,45.96
2024-03-07T03:42:21.289Z,45.79
2024-03-07T03:46:24.536Z,45.84
2024-03-07T03:50:26.018Z,45.92
2024-03-07T03:54:27.626Z,45.80
2024-03-07T03:58:29.890Z,46.24
2024-03-07T04:02:31.401Z,46.24
2024-03-07T04:06:33.034Z,46.24
2024-03-07T04:10:34.558Z,46.23
2024-03-07T04:14:36.388Z,46.31
2024-03-07T04:18:37.956Z,46.60
2024-03-07T04:22:40.018Z,46.41
2024-03-07T04:26:44.361Z,46.84
2024-03-07T04:30:45.908Z,46.70
2024-03-07T04:34:47.653Z,46.73
2024-03-07T04:38:49.185Z,47.01
2024-03-07T04:42:51.242Z,46.81
2024-03-07T04:46:56.577Z,46.83
2024-03-07T04:50:59.592Z,47.27
2024-03-07T04:55:01.256Z,47.32
2024-03-07T04:59:02.777Z,47.48
2024-03-07T05:03:05.987Z,47.38
2024-03-07T05:07:07.554Z,47.48
2024-03-07T05:11:09.677Z,48.13
2024-03-07T05:15:11.500Z,47.95
2024-03-07T05:19:13.304Z,47.77
2024-03-07T05:23:17.720Z,48.05
2024-03-07T05:27:19.724Z,48.03
2024-03-07T05:31:22.019Z,48.23
2024-03-07T05:35:23.574Z,48.62
2024-03-07T05:39:25.559Z,48.66
2024-03-07T05:43:27.064Z,48.59
2024-03-07T05:47:28.644Z,48.79
2024-03-07T05:51:30.686Z,48.74
2024-03-07T05:55:33.381Z,48.72
2024-03-07T05:59:35.022Z,48.86
2024-03-07T06:03:36.596Z,48.51
2024-03-07T06:07:38.042Z,48.71
2024-03-07T06:11:43.108Z,48.93
2024-03-07T06:15:46.967Z,48.83
2024-03-07T06:19:49.424Z,48.86
2024-03-07T06:24:00.282Z,48.83
2024-03-07T06:28:10.027Z,49.08
2024-03-07T06:32:12.895Z,49.53
2024-03-07T06:36:14.446Z,49.41
2024-03-07T06:40:22.025Z,49.30
2024-03-07T06:44:24.846Z,49.41
2024-03-07T06:48:26.780Z,50.22
2024-03-07T06:52:28.561Z,50.01
2024-03-07T06:56:30.067Z,49.80
2024-03-07T07:00:33.092Z,49.80
2024-03-07T07:04:42.842Z,50.26
2024-03-07T07:08:47.888Z,49.80
2024-03-07T07:12:49.651Z,50.48
2024-03-07T07:16:51.157Z,50.10
2024-03-07T07:20:55.660Z,49.95
2024-03-07T07:24:57.246Z,50.09
2024-03-07T07:28:59.217Z,50.05
2024-03-07T07:33:00.894Z,50.38
2024-03-07T07:37:02.399Z,50.50
2024-03-07T07:41:04.211Z,50.39
2024-03-07T07:45:12.403Z,50.96
2024-03-07T07:49:13.893Z,51.00
2024-03-07T07:53:15.365Z,50.94
2024-03-07T07:57:16.849Z,51.33
2024-03-07T08:01:18.565Z,51.31
2024-03-07T08:05:28.594Z,51.50
2024-03-07T08:09:30.330Z,51.47
2024-03-07T08:13:31.770Z,50.87
2024-03-07T08:17:33.370Z,51.03
2024-03-07T08:21:34.897Z,51.68
2024-03-07T08:25:36.541Z,51.12
2024-03-07T08:29:38.022Z,50.98
2024-03-07T08:33:39.962Z,51.33
2024-03-07T08:37:43.232Z,51.36
2024-03-07T08:41:47.602Z,51.42
2024-03-07T08:45:49.246Z,51.12
2024-03-07T08:49:50.753Z,51.16
2024-03-07T08:53:52.268Z,51.33
2024-03-07T08:57:54.127Z,51.09
2024-03-07T09:01:56.437Z,51.04
2024-03-07T09:05:57.912Z,51.67
2024-03-07T09:09:59.965Z,51.61
2024-03-07T09:14:01.434Z,51.21
2024-03-07T09:18:05.355Z,51.68
2024-03-07T09:22:09.135Z,51.42
2024-03-07T09:26:10.746Z,51.54
2024-03-07T09:30:13.703Z,51.69
2024-03-07T09:34:15.960Z,51.45
2024-03-07T09:38:17.736Z,51.96
2024-03-07T09:42:19.372Z,51.72
2024-03-07T09:46:24.584Z,51.48
2024-03-07T09:50:29.356Z,51.63
2024-03-07T09:54:30.908Z,51.92
2024-03-07T09:58:36.965Z,52.31
2024-03-07T10:02:42.183Z,51.97
2024-03-07T10:06:46.470Z,51.59
2024-03-07T10:10:48.947Z,52.18
2024-03-07T10:14:58.299Z,52.10
2024-03-07T10:19:02.876Z,52.02
2024-03-07T10:23:04.860Z,51.99
2024-03-07T10:27:07.145Z,52.42
2024-03-07T10:31:12.276Z,51.79
2024-03-07T10:35:15.371Z,52.37
2024-03-07T10:39:17.457Z,52.16
2024-03-07T10:43:21.446Z,52.16
2024-03-07T10:47:28.445Z,51.80
2024-03-07T10:51:40.801Z,52.00
2024-03-07T10:55:57.928Z,51.80
2024-03-07T11:00:24.726Z,52.01
2024-03-07T11:04:27.811Z,52.09
2024-03-07T11:08:29.733Z,51.84
2024-03-07T11:12:31.663Z,51.93
2024-03-07T11:16:34.488Z,51.58
2024-03-07T11:20:37.971Z,51.67
2024-03-07T11:24:39.595Z,51.64
2024-03-07T11:28:42.741Z,51.93
2024-03-07T11:32:45.977Z,51.78
2024-03-07T11:36:50.797Z,51.57
2024-03-07T11:40:52.489Z,51.30
2024-03-07T11:44:57.381Z,51.64
2024-03-07T11:49:01.098Z,51.05
2024-03-07T11:53:07.099Z,50.75
2024-03-07T11:57:14.068Z,50.94
2024-03-07T12:01:17.781Z,51.12
2024-03-07T12:05:20.890Z,50.94
2024-03-07T12:09:24.853Z,50.61
2024-03-07T12:13:27.658Z,50.79
2024-03-07T12:17:31.307Z,51.04
2024-03-07T12:21:33.927Z,50.88
2024-03-07T12:25:44.613Z,50.18
2024-03-07T12:29:49.360Z,50.50
2024-03-07T12:33:53.165Z,50.53
2024-03-07T12:37:55.470Z,50.52
2024-03-07T12:42:00.450Z,51.10
2024-03-07T12:46:02.076Z,50.56
2024-03-07T12:50:08.502Z,50.80
2024-03-07T12:54:13.294Z,50.88
2024-03-07T12:58:16.316Z,51.50
2024-03-07T13:02:17.939Z,50.25
2024-03-07T13:06:26.484Z,50.61
2024-03-07T13:10:28.263Z,51.20
2024-03-07T13:14:33.853Z,50.91
2024-03-07T13:18:36.230Z,51.08
2024-03-07T13:22:50.367Z,51.38
2024-03-07T13:26:51.930Z,51.22
2024-03-07T13:30:56.476Z,51.58
2024-03-07T13:35:00.926Z,51.43
2024-03-07T13:39:03.980Z,51.22
2024-03-07T13:43:07.435Z,50.78
2024-03-07T13:47:08.981Z,51.47
2024-03-07T13:51:10.816Z,51.32
2024-03-07T13:55:13.024Z,51.64
2024-03-07T13:59:14.401Z,51.93
2024-03-07T14:03:30.817Z,51.63
2024-03-07T14:08:01.268Z,52.37
2024-03-07T14:12:39.419Z,51.58
2024-03-07T14:17:13.368Z,51.79
2024-03-07T14:21:49.756Z,51.83
2024-03-07T14:26:33.084Z,52.48
2024-03-07T14:30:59.983Z,51.82
2024-03-07T14:35:01.352Z,51.77
2024-03-07T14:39:05.761Z,51.90
2024-03-07T14:43:07.725Z,51.39
2024-03-07T14:47:12.755Z,52.11
2024-03-07T14:51:15.565Z,50.95
2024-03-07T14:55:20.068Z,51.27
2024-03-07T14:59:22.220Z,50.26
2024-03-07T15:03:25.714Z,51.20
2024-03-07T15:07:27.239Z,50.74
2024-03-07T15:11:36.607Z,50.55
2024-03-07T15:15:38.483Z,50.13
2024-03-07T15:19:39.964Z,50.68
2024-03-07T15:23:41.484Z,50.19
2024-03-07T15:27:42.986Z,50.34
2024-03-07T15:31:44.465Z,50.54
2024-03-07T15:35:47.411Z,50.47
2024-03-07T15:39:49.001Z,50.38
2024-03-07T15:43:50.702Z,49.76
2024-03-07T15:47:54.424Z,50.58
2024-03-07T15:51:56.500Z,49.83
2024-03-07T15:55:58.917Z,49.35
2024-03-07T16:00:00.600Z,49.72
2024-03-07T16:04:02.201Z,49.12
2024-03-07T16:08:07.363Z,49.57
2024-03-07T16:12:09.445Z,48.87
2024-03-07T16:16:10.967Z,49.28
2024-03-07T16:20:15.584Z,49.75
2024-03-07T16:24:17.188Z,50.03
2024-03-07T16:28:22.819Z,50.18
2024-03-07T16:32:24.525Z,49.77
2024-03-07T16:36:27.263Z,50.44
2024-03-07T16:40:29.975Z,50.72
2024-03-07T16:44:33.263Z,50.41
2024-03-07T16:48:35.128Z,50.34
2024-03-07T16:52:37.931Z,50.65
2024-03-07T16:56:42.099Z,50.12
2024-03-07T17:00:44.935Z,50.11
2024-03-07T17:04:48.578Z,50.74
2024-03-07T17:08:50.454Z,51.28
2024-03-07T17:12:52.396Z,51.08
2024-03-07T17:16:55.603Z,51.38
2024-03-07T17:20:57.184Z,50.47
2024-03-07T17:24:58.673Z,50.50
2024-03-07T17:29:00.154Z,50.57
2024-03-07T17:33:02.358Z,50.58
2024-03-07T17:37:05.939Z,50.44
2024-03-07T17:41:07.484Z,50.22
2024-03-07T17:45:12.208Z,49.69
2024-03-07T17:49:15.078Z,50.41
2024-03-07T17:53:17.520Z,50.25
2024-03-07T17:57:19.150Z,50.58
2024-03-07T18:01:20.673Z,49.52
2024-03-07T18:05:24.186Z,49.78
2024-03-07T18:09:29.203Z,50.23
2024-03-07T18:13:31.785Z,50.09
2024-03-07T18:17:35.201Z,51.02
2024-03-07T18:21:37.190Z,49.85
2024-03-07T18:25:38.745Z,49.94
2024-03-07T18:29:40.501Z,49.68
2024-03-07T18:33:46.053Z,50.17
2024-03-07T18:37:51.778Z,49.50
2024-03-07T18:41:53.367Z,48.94
2024-03-07T18:45:54.845Z,49.50
2024-03-07T18:49:56.439Z,49.21
2024-03-07T18:53:57.919Z,48.80
2024-03-07T18:58:04.252Z,49.25
2024-03-07T19:02:11.294Z,48.75
2024-03-07T19:06:13.089Z,48.61
2024-03-07T19:10:18.040Z,49.63
2024-03-07T19:14:19.944Z,48.58
2024-03-07T19:18:23.453Z,49.44
2024-03-07T19:22:26.560Z,48.67
2024-03-07T19:26:30.148Z,49.19
2024-03-07T19:30:31.650Z,48.50
2024-03-07T19:34:33.634Z,47.61
2024-03-07T19:38:36.027Z,47.59
2024-03-07T19:42:40.910Z,47.44
2024-03-07T19:46:43.829Z,47.86
2024-03-07T19:50:46.849Z,47.91
2024-03-07T19:54:48.843Z,48.00
2024-03-07T19:58:50.856Z,48.06
2024-03-07T20:02:52.465Z,48.06
2024-03-07T20:06:54.086Z,48.21
2024-03-07T20:10:57.278Z,47.79
2024-03-07T20:14:58.849Z,48.43
2024-03-07T20:19:01.605Z,47.64
2024-03-07T20:23:04.943Z,47.78
2024-03-07T20:27:06.743Z,47.68
2024-03-07T20:31:09.449Z,47.63
2024-03-07T20:35:12.694Z,47.21
2024-03-07T20:39:23.880Z,47.31
2024-03-07T20:43:25.479Z,48.21
2024-03-07T20:47:27.461Z,47.69
2024-03-07T20:51:34.045Z,47.61
2024-03-07T20:55:36.410Z,47.83
2024-03-07T20:59:37.885Z,47.92
2024-03-07T21:03:43.007Z,48.06
2024-03-07T21:07:47.431Z,47.52
2024-03-07T21:11:49.259Z,47.54
2024-03-07T21:15:50.992Z,48.03
2024-03-07T21:19:52.943Z,47.83
2024-03-07T21:23:54.578Z,47.74
2024-03-07T21:27:56.198Z,47.48
2024-03-07T21:31:58.077Z,46.93
2024-03-07T21:35:59.637Z,47.22
2024-03-07T21:40:02.134Z,47.69
2024-03-07T21:44:03.663Z,46.59
2024-03-07T21:48:07.706Z,46.58
2024-03-07T21:52:13.887Z,46.56
2024-03-07T21:56:15.403Z,45.97
2024-03-07T22:00:19.060Z,45.75
2024-03-07T22:04:21.127Z,45.25
2024-03-07T22:08:22.587Z,45.53
2024-03-07T22:12:24.177Z,45.72
2024-03-07T22:16:28.115Z,45.29
2024-03-07T22:20:30.096Z,44.58
2024-03-07T22:24:31.647Z,45.39
2024-03-07T22:28:34.568Z,44.92
2024-03-07T22:32:37.581Z,45.09
2024-03-07T22:36:46.207Z,45.09
2024-03-07T22:40:47.782Z,45.20
2024-03-07T22:44:49.266Z,44.99
2024-03-07T22:48:50.929Z,45.32
2024-03-07T22:52:52.439Z,45.00
2024-03-07T22:56:54.086Z,45.10
2024-03-07T23:00:55.864Z,45.90
2024-03-07T23:04:57.319Z,45.27
2024-03-07T23:09:04.907Z,45.57
2024-03-07T23:13:06.521Z,45.43
2024-03-07T23:17:09.483Z,45.69
2024-03-07T23:21:11.311Z,45.98
2024-03-07T23:25:14.529Z,45.16
2024-03-07T23:29:16.515Z,45.68
2024-03-07T23:33:18.247Z,45.97
2024-03-07T23:37:21.574Z,46.34
2024-03-07T23:41:23.142Z,46.05
2024-03-07T23:45:25.029Z,46.03
2024-03-07T23:49:26.629Z,45.91
2024-03-07T23:53:28.152Z,46.06
2024-03-07T23:57:31.665Z,45.63
